createdAt,value
2022-10-02T00:00:40.690Z,2.90
2022-10-02T00:06:51.461Z,2.70
2022-10-02T00:12:58.448Z,3.33
2022-10-02T00:19:03.254Z,3.88
2022-10-02T00:25:09.605Z,2.40
2022-10-02T00:31:38.781Z,3.67
2022-10-02T00:37:46.626Z,3.28
2022-10-02T00:43:57.952Z,2.30
2022-10-02T00:50:11.838Z,2.28
2022-10-02T00:56:23.672Z,2.40
2022-10-02T01:02:54.078Z,2.17
2022-10-02T01:09:01.664Z,2.03
2022-10-02T01:15:14.699Z,1.55
2022-10-02T01:21:21.579Z,2.20
2022-10-02T01:27:28.334Z,2.42
2022-10-02T01:33:32.535Z,2.15
2022-10-02T01:39:36.137Z,2.67
2022-10-02T01:45:54.911Z,2.42
2022-10-02T01:52:11.231Z,2.15
2022-10-02T01:58:21.291Z,2.00
2022-10-02T02:04:31.243Z,2.10
2022-10-02T02:10:42.164Z,2.10
2022-10-02T02:16:50.078Z,2.42
2022-10-02T02:22:56.804Z,2.28
2022-10-02T02:29:04.366Z,1.73
2022-10-02T02:35:12.147Z,2.10
2022-10-02T02:41:21.379Z,1.85
2022-10-02T02:47:32.299Z,1.80
2022-10-02T02:53:40.807Z,1.92
2022-10-02T02:59:50.008Z,1.95
2022-10-02T03:05:55.133Z,1.48
2022-10-02T03:12:18.187Z,1.70
2022-10-02T03:18:38.090Z,2.22
2022-10-02T03:24:44.715Z,1.50
2022-10-02T03:30:49.039Z,1.95
2022-10-02T03:36:56.815Z,2.25
2022-10-02T03:43:04.837Z,2.00
2022-10-02T03:49:10.624Z,2.00
2022-10-02T03:55:22.603Z,2.20
2022-10-02T04:01:28.107Z,2.28
2022-10-02T04:07:51.701Z,2.58
2022-10-02T04:14:02.646Z,2.30
2022-10-02T04:20:11.392Z,2.30
2022-10-02T04:26:17.795Z,2.22
2022-10-02T04:32:26.525Z,2.00
2022-10-02T04:38:42.063Z,2.67
2022-10-02T04:44:52.975Z,2.40
2022-10-02T04:51:02.768Z,2.03
2022-10-02T04:57:19.067Z,2.13
2022-10-02T05:03:30.556Z,2.25
2022-10-02T05:09:40.645Z,1.58
2022-10-02T05:15:51.475Z,1.90
2022-10-02T05:22:07.686Z,2.05
2022-10-02T05:28:27.049Z,1.73
2022-10-02T05:34:44.047Z,1.83
2022-10-02T05:40:50.888Z,1.85
2022-10-02T05:47:01.674Z,1.77
2022-10-02T05:53:07.346Z,1.70
2022-10-02T05:59:18.508Z,1.80
2022-10-02T06:05:25.723Z,1.67
2022-10-02T06:11:32.132Z,1.70
2022-10-02T06:17:38.482Z,1.80
2022-10-02T06:23:45.365Z,1.60
2022-10-02T06:29:52.649Z,1.40
2022-10-02T06:36:14.023Z,1.75
2022-10-02T06:42:23.461Z,1.40
2022-10-02T06:48:27.585Z,1.27
2022-10-02T06:54:51.315Z,1.58
2022-10-02T07:01:03.444Z,1.65
2022-10-02T07:07:12.436Z,1.50
2022-10-02T07:13:27.456Z,1.70
2022-10-02T07:19:54.525Z,1.40
2022-10-02T07:26:07.492Z,1.75
2022-10-02T07:32:24.127Z,1.25
2022-10-02T07:38:47.112Z,1.15
2022-10-02T07:45:18.972Z,1.17
2022-10-02T07:51:45.822Z,1.40
2022-10-02T07:57:59.739Z,1.40
2022-10-02T08:04:04.741Z,1.30
2022-10-02T08:10:10.029Z,0.88
2022-10-02T08:16:17.130Z,1.83
2022-10-02T08:22:25.760Z,2.00
2022-10-02T08:28:35.357Z,2.03
2022-10-02T08:34:41.105Z,1.70
2022-10-02T08:40:55.905Z,1.40
2022-10-02T08:47:15.941Z,1.20
2022-10-02T08:53:36.995Z,1.10
2022-10-02T09:00:08.002Z,1.05
2022-10-02T09:06:23.564Z,1.23
2022-10-02T09:12:44.819Z,1.25
2022-10-02T09:18:53.101Z,1.10
2022-10-02T09:25:11.309Z,1.00
2022-10-02T09:31:30.147Z,0.80
2022-10-02T09:37:48.461Z,1.25
2022-10-02T09:44:18.518Z,1.25
2022-10-02T09:50:40.004Z,1.65
2022-10-02T09:56:54.456Z,1.42
2022-10-02T10:03:16.387Z,1.70
2022-10-02T10:09:40.513Z,2.63
2022-10-02T10:15:57.757Z,1.63
2022-10-02T10:22:32.585Z,3.60
2022-10-02T10:28:46.650Z,2.00
2022-10-02T10:35:07.324Z,2.08
2022-10-02T10:41:22.411Z,2.35
2022-10-02T10:47:40.632Z,2.65
2022-10-02T10:53:52.469Z,2.65
2022-10-02T11:00:13.106Z,2.10
2022-10-02T11:06:35.521Z,2.38
2022-10-02T11:12:52.476Z,2.65
2022-10-02T11:19:21.225Z,7.30
2022-10-02T11:25:34.162Z,2.92
2022-10-02T11:31:48.073Z,2.30
2022-10-02T11:38:07.495Z,2.70
2022-10-02T11:44:14.747Z,2.63
2022-10-02T11:50:30.923Z,2.95
2022-10-02T11:56:43.993Z,2.95
2022-10-02T12:02:54.143Z,2.67
2022-10-02T12:09:03.653Z,3.40
2022-10-02T12:15:23.048Z,3.05
2022-10-02T12:21:49.994Z,4.20
2022-10-02T12:28:00.374Z,4.72
2022-10-02T12:34:09.605Z,4.68
2022-10-02T12:40:19.961Z,5.90
2022-10-02T12:46:36.836Z,5.97
2022-10-02T12:53:01.329Z,5.28
2022-10-02T12:59:11.265Z,6.45
2022-10-02T13:05:46.046Z,5.63
2022-10-02T13:12:01.359Z,6.10
2022-10-02T13:18:09.080Z,5.43
2022-10-02T13:24:25.530Z,6.35
2022-10-02T13:30:31.589Z,5.32
2022-10-02T13:36:42.714Z,4.93
2022-10-02T13:42:54.336Z,3.22
2022-10-02T13:49:02.833Z,2.25
2022-10-02T13:55:14.754Z,2.00
2022-10-02T14:01:26.168Z,1.70
2022-10-02T14:07:48.161Z,1.67
2022-10-02T14:14:03.203Z,2.13
2022-10-02T14:20:30.188Z,2.00
2022-10-02T14:26:38.013Z,1.60
2022-10-02T14:32:46.726Z,1.48
2022-10-02T14:38:56.096Z,1.52
2022-10-02T14:45:08.723Z,1.90
2022-10-02T14:51:22.240Z,1.40
2022-10-02T14:57:32.877Z,1.60
2022-10-02T15:03:43.528Z,1.42
2022-10-02T15:09:55.596Z,1.80
2022-10-02T15:16:22.286Z,1.33
2022-10-02T15:22:27.613Z,1.77
2022-10-02T15:28:37.956Z,1.60
2022-10-02T15:34:46.720Z,1.75
2022-10-02T15:40:57.240Z,1.90
2022-10-02T15:47:04.922Z,1.45
2022-10-02T15:53:28.954Z,2.22
2022-10-02T15:59:41.805Z,1.83
2022-10-02T16:05:53.211Z,1.70
2022-10-02T16:12:20.474Z,1.40
2022-10-02T16:18:33.331Z,2.17
2022-10-02T16:24:47.182Z,1.90
2022-10-02T16:31:06.476Z,1.80
2022-10-02T16:37:21.181Z,1.98
2022-10-02T16:43:31.955Z,1.52
2022-10-02T16:49:44.373Z,1.75
2022-10-02T16:55:51.500Z,1.70
2022-10-02T17:02:18.316Z,1.60
2022-10-02T17:08:25.261Z,1.70
2022-10-02T17:14:39.393Z,1.95
2022-10-02T17:20:44.672Z,2.13
2022-10-02T17:26:51.896Z,2.20
2022-10-02T17:33:07.717Z,2.13
2022-10-02T17:39:23.580Z,2.50
2022-10-02T17:45:33.636Z,2.30
2022-10-02T17:52:00.036Z,4.40
2022-10-02T17:58:07.307Z,3.13
2022-10-02T18:04:20.789Z,4.05
2022-10-02T18:10:32.393Z,3.05
2022-10-02T18:16:45.098Z,2.65
2022-10-02T18:22:58.509Z,3.03
2022-10-02T18:29:11.086Z,2.92
2022-10-02T18:35:23.844Z,3.78
2022-10-02T18:41:48.356Z,4.60
2022-10-02T18:47:57.470Z,9.80
2022-10-02T18:54:11.717Z,5.15
2022-10-02T19:00:17.237Z,13.02
2022-10-02T19:06:26.493Z,5.75
2022-10-02T19:12:33.408Z,5.13
2022-10-02T19:18:37.333Z,5.07
2022-10-02T19:24:43.953Z,5.28
2022-10-02T19:30:49.980Z,6.07
2022-10-02T19:36:54.961Z,5.85
2022-10-02T19:43:02.519Z,5.30
2022-10-02T19:49:10.144Z,5.53
2022-10-02T19:55:22.567Z,5.43
2022-10-02T20:01:28.617Z,4.55
2022-10-02T20:07:34.447Z,4.80
2022-10-02T20:13:44.247Z,4.95
2022-10-02T20:19:51.889Z,6.13
2022-10-02T20:25:58.711Z,6.10
2022-10-02T20:32:07.942Z,5.57
2022-10-02T20:38:17.243Z,5.55
2022-10-02T20:44:21.344Z,5.15
2022-10-02T20:50:41.582Z,5.10
2022-10-02T20:56:55.873Z,5.95
2022-10-02T21:03:17.559Z,5.03
2022-10-02T21:09:42.579Z,4.80
2022-10-02T21:16:10.926Z,4.18
2022-10-02T21:22:32.855Z,4.40
2022-10-02T21:28:57.367Z,4.78
2022-10-02T21:35:10.553Z,4.47
2022-10-02T21:41:32.745Z,4.47
2022-10-02T21:47:45.349Z,4.85
2022-10-02T21:54:13.180Z,4.88
2022-10-02T22:00:19.471Z,5.05
2022-10-02T22:06:37.570Z,4.38
2022-10-02T22:12:51.243Z,4.55
2022-10-02T22:18:57.788Z,4.45
2022-10-02T22:25:15.019Z,4.72
2022-10-02T22:31:37.333Z,5.15
2022-10-02T22:37:56.924Z,5.25
2022-10-02T22:44:02.623Z,5.25
2022-10-02T22:50:11.629Z,4.32
2022-10-02T22:56:21.102Z,4.65
2022-10-02T23:02:28.371Z,4.68
2022-10-02T23:08:42.061Z,5.20
2022-10-02T23:14:51.384Z,4.18
2022-10-02T23:21:02.475Z,4.85
2022-10-02T23:27:12.024Z,4.50
2022-10-02T23:33:22.044Z,5.20
2022-10-02T23:39:30.356Z,5.03
2022-10-02T23:45:40.734Z,5.10
2022-10-02T23:51:48.035Z,5.43
2022-10-02T23:58:04.034Z,4.75
